Time;durP1;ratioP1;P1;durP2;ratioP2;P2;SDS_P1;SDS_P2;PMS_P1;PMS_P2;Temp;Humidity;BMP_temperature;BMP_pressure;BME280_temperature;BME280_humidity;BME280_pressure;Samples;Min_cycle;Max_cycle;Signal;HPM_P1;HPM_P2
2022/12/06 00:01:09;;;;;;;11.40;10.27;;;;;;;3.66;100.00;96942.38;5050727;28;20522;-59
2022/12/06 00:03:35;;;;;;;12.07;10.87;;;;;;;3.79;100.00;96934.75;5052382;28;20236;-60
2022/12/06 00:06:02;;;;;;;11.80;10.60;;;;;;;3.76;100.00;96933.34;5052609;28;20666;-59
2022/12/06 00:08:27;;;;;;;12.00;10.80;;;;;;;3.71;100.00;96935.69;5052578;28;20228;-59
2022/12/06 00:10:52;;;;;;;11.70;10.60;;;;;;;3.69;100.00;96926.47;5051845;28;20178;-62
2022/12/06 00:13:18;;;;;;;11.10;9.93;;;;;;;3.65;100.00;96928.63;5052752;28;20171;-60
2022/12/06 00:15:43;;;;;;;9.77;8.77;;;;;;;3.66;100.00;96926.84;5052673;28;20178;-58
2022/12/06 00:18:08;;;;;;;10.43;9.43;;;;;;;3.69;100.00;96931.66;5052369;28;20265;-60
2022/12/06 00:20:34;;;;;;;11.30;10.07;;;;;;;3.77;100.00;96926.38;5052489;28;20190;-59
2022/12/06 00:22:59;;;;;;;10.50;9.50;;;;;;;3.72;100.00;96928.72;5051936;28;20247;-61
2022/12/06 00:25:25;;;;;;;11.50;10.40;;;;;;;3.66;100.00;96925.06;5052554;28;20177;-60
2022/12/06 00:27:50;;;;;;;11.67;10.50;;;;;;;3.62;100.00;96933.38;5051878;28;20201;-59
2022/12/06 00:30:16;;;;;;;10.27;9.27;;;;;;;3.62;100.00;96934.16;5052341;28;20178;-58
2022/12/06 00:32:41;;;;;;;11.23;10.13;;;;;;;3.62;100.00;96928.97;5052320;28;20193;-59
2022/12/06 00:35:07;;;;;;;11.17;10.07;;;;;;;3.75;100.00;96923.97;5046401;28;20955;-60
2022/12/06 00:37:32;;;;;;;10.23;9.33;;;;;;;3.68;100.00;96917.88;5032189;28;20559;-59
2022/12/06 00:39:58;;;;;;;11.67;10.47;;;;;;;3.62;100.00;96918.59;5032160;28;20188;-58
2022/12/06 00:42:23;;;;;;;11.40;10.30;;;;;;;3.62;100.00;96908.22;5032276;28;20182;-58
2022/12/06 00:44:49;;;;;;;11.53;10.43;;;;;;;3.60;100.00;96905.03;5032363;28;20218;-59
2022/12/06 00:47:14;;;;;;;11.07;10.07;;;;;;;3.74;100.00;96911.97;5031888;28;20683;-58
2022/12/06 00:49:39;;;;;;;11.33;10.23;;;;;;;3.57;100.00;96914.94;5032156;28;20245;-60
2022/12/06 00:52:05;;;;;;;11.03;9.97;;;;;;;3.72;100.00;96916.56;5032078;28;20586;-62
2022/12/06 00:54:31;;;;;;;10.47;9.40;;;;;;;3.57;100.00;96920.13;5031884;28;20166;-59
2022/12/06 00:56:56;;;;;;;10.00;8.93;;;;;;;3.33;100.00;96924.59;5031997;28;20190;-58
2022/12/06 00:59:22;;;;;;;9.40;8.50;;;;;;;3.30;100.00;96918.94;5032145;28;20182;-60
2022/12/06 01:01:47;;;;;;;9.00;8.10;;;;;;;3.36;100.00;96913.06;5029996;28;20190;-60
2022/12/06 01:04:13;;;;;;;9.57;8.67;;;;;;;3.34;100.00;96921.00;5031985;28;20179;-59
2022/12/06 01:06:38;;;;;;;9.67;8.73;;;;;;;3.18;100.00;96916.00;5032040;28;20182;-59
2022/12/06 01:09:06;;;;;;;9.53;8.53;;;;;;;3.07;100.00;96915.63;5031743;28;20218;-59
2022/12/06 01:11:32;;;;;;;10.00;9.00;;;;;;;3.04;100.00;96910.81;5031573;28;20682;-59
2022/12/06 01:13:58;;;;;;;10.80;9.87;;;;;;;2.90;100.00;96909.78;5031874;28;20209;-59
2022/12/06 01:16:26;;;;;;;14.33;10.80;;;;;;;2.95;100.00;96914.47;5031881;28;20183;-58
2022/12/06 01:18:54;;;;;;;11.47;10.37;;;;;;;2.83;100.00;96907.13;5031570;28;20289;-59
2022/12/06 01:21:21;;;;;;;10.77;9.67;;;;;;;2.93;100.00;96912.03;5031978;28;20198;-59
2022/12/06 01:23:47;;;;;;;11.00;9.90;;;;;;;2.62;100.00;96914.69;5014241;28;20185;-59
2022/12/06 01:26:27;;;;;;;11.00;9.90;;;;;;;2.71;100.00;96908.50;5031526;28;20194;-60
2022/12/06 01:28:53;;;;;;;11.73;10.50;;;;;;;2.62;100.00;96912.13;5031573;28;20253;-59
2022/12/06 01:31:19;;;;;;;12.67;11.47;;;;;;;2.80;100.00;96912.63;5032033;28;20194;-60
2022/12/06 01:33:44;;;;;;;12.20;11.00;;;;;;;2.78;100.00;96916.38;5031274;28;20189;-60
2022/12/06 01:36:22;;;;;;;12.53;11.00;;;;;;;2.74;100.00;96908.16;5043789;28;20237;-60
2022/12/06 01:38:50;;;;;;;13.20;12.00;;;;;;;2.77;100.00;96909.59;5055357;28;20217;-60
2022/12/06 01:41:15;;;;;;;13.50;12.20;;;;;;;2.87;100.00;96913.53;5055646;28;20511;-59
2022/12/06 01:43:42;;;;;;;12.00;10.80;;;;;;;2.84;100.00;96907.91;5055326;28;20181;-59
2022/12/06 01:46:28;;;;;;;12.27;10.37;;;;;;;3.05;100.00;96900.28;5055204;28;20235;-62
2022/12/06 01:49:11;;;;;;;11.47;10.30;;;;;;;2.89;100.00;96890.09;5055220;28;20205;-59
2022/12/06 01:51:42;;;;;;;12.30;11.10;;;;;;;2.97;100.00;96895.16;5037123;28;20714;-61
2022/12/06 01:54:12;;;;;;;13.53;10.67;;;;;;;2.84;100.00;96900.16;5055153;28;20185;-60
2022/12/06 01:56:39;;;;;;;12.13;10.90;;;;;;;2.96;100.00;96896.13;5054786;28;20193;-62
2022/12/06 01:59:07;;;;;;;13.70;12.30;;;;;;;2.87;100.00;96894.63;5054001;28;20224;-61
2022/12/06 02:01:33;;;;;;;13.27;11.87;;;;;;;2.77;100.00;96899.25;5054041;28;20585;-59
2022/12/06 02:04:00;;;;;;;11.47;10.37;;;;;;;3.03;100.00;96894.47;5038243;28;20257;-60
2022/12/06 02:06:28;;;;;;;11.23;10.10;;;;;;;2.98;100.00;96895.97;5037023;28;20190;-60
2022/12/06 02:08:55;;;;;;;12.37;10.13;;;;;;;2.96;100.00;96890.16;5054768;28;20293;-57
2022/12/06 02:11:21;;;;;;;11.53;10.43;;;;;;;2.96;100.00;96893.56;5054332;28;20185;-58
2022/12/06 02:13:47;;;;;;;13.97;10.47;;;;;;;2.87;100.00;96899.78;5054665;28;20186;-58
2022/12/06 02:16:32;;;;;;;11.23;10.07;;;;;;;2.93;100.00;96891.31;5055099;28;20189;-60
2022/12/06 02:19:12;;;;;;;10.73;9.63;;;;;;;3.13;100.00;96896.78;5055128;28;20220;-61
2022/12/06 02:21:49;;;;;;;11.30;9.77;;;;;;;3.16;100.00;96886.91;5054960;28;20158;-61
2022/12/06 02:24:47;;;;;;;11.93;10.70;;;;;;;2.99;100.00;96893.22;5054720;28;20185;-59
2022/12/06 02:28:02;;;;;;;10.80;9.70;;;;;;;3.03;100.00;96891.88;5036497;28;20668;-60
2022/12/06 02:31:10;;;;;;;10.23;9.23;;;;;;;2.99;100.00;96884.66;4980607;28;20202;-56
2022/12/06 02:33:48;;;;;;;10.00;9.10;;;;;;;3.06;100.00;96883.78;5054248;28;20182;-58
2022/12/06 02:36:26;;;;;;;9.67;8.63;;;;;;;3.07;100.00;96880.19;5039293;28;20260;-58
2022/12/06 02:38:58;;;;;;;10.17;9.03;;;;;;;3.04;100.00;96877.94;5034443;28;20615;-60
2022/12/06 02:41:34;;;;;;;9.93;8.93;;;;;;;2.93;100.00;96874.00;5034895;28;20328;-59
2022/12/06 02:44:11;;;;;;;9.70;8.80;;;;;;;3.06;100.00;96875.19;5034586;28;20669;-59
2022/12/06 02:46:38;;;;;;;9.63;8.63;;;;;;;3.03;100.00;96871.16;5033808;28;20163;-59
2022/12/06 02:49:06;;;;;;;9.40;8.50;;;;;;;3.04;100.00;96870.19;5034498;28;20195;-59
2022/12/06 02:51:34;;;;;;;9.30;8.40;;;;;;;2.99;100.00;96869.91;5034444;28;20262;-60
2022/12/06 02:54:04;;;;;;;10.00;9.00;;;;;;;3.00;100.00;96868.13;5034243;28;20274;-58
2022/12/06 02:56:31;;;;;;;9.73;8.60;;;;;;;2.99;100.00;96869.09;5033946;28;20281;-59
2022/12/06 02:58:57;;;;;;;9.90;8.90;;;;;;;2.96;100.00;96867.66;5032156;28;20256;-60
2022/12/06 03:01:27;;;;;;;11.57;9.37;;;;;;;2.98;100.00;96859.72;5033418;28;20569;-60
2022/12/06 03:04:05;;;;;;;9.97;8.97;;;;;;;3.01;100.00;96870.53;5033936;28;20182;-57
2022/12/06 03:06:58;;;;;;;8.80;8.00;;;;;;;3.26;100.00;96864.13;5033817;28;20244;-59
2022/12/06 03:09:43;;;;;;;10.23;9.23;;;;;;;3.15;100.00;96858.59;5017445;28;20209;-59
2022/12/06 03:12:27;;;;;;;9.07;8.17;;;;;;;3.20;100.00;96856.25;5033992;28;20179;-58
2022/12/06 03:15:36;;;;;;;12.63;8.87;;;;;;;3.22;100.00;96859.50;5033736;28;20186;-60
2022/12/06 03:18:10;;;;;;;9.60;8.70;;;;;;;3.29;100.00;96857.78;4985528;28;20222;-58
2022/12/06 03:20:44;;;;;;;8.33;7.53;;;;;;;3.38;100.00;96856.72;5033659;28;20265;-59
2022/12/06 03:23:17;;;;;;;9.13;8.23;;;;;;;3.26;100.00;96856.34;5033329;28;20189;-59
2022/12/06 03:25:45;;;;;;;8.83;8.03;;;;;;;3.29;100.00;96855.19;5033659;28;20183;-59
2022/12/06 03:28:14;;;;;;;9.57;8.67;;;;;;;3.52;100.00;96860.25;5033216;28;20206;-58
2022/12/06 03:30:44;;;;;;;9.40;8.60;;;;;;;3.34;100.00;96858.06;5033662;28;20204;-59
2022/12/06 03:33:13;;;;;;;9.60;8.70;;;;;;;3.24;100.00;96855.72;5033133;28;20217;-60
2022/12/06 03:35:41;;;;;;;8.87;8.03;;;;;;;3.27;100.00;96851.97;5038749;28;20233;-59
2022/12/06 03:38:12;;;;;;;8.60;7.90;;;;;;;3.25;100.00;96843.56;5053254;28;20661;-60
2022/12/06 03:40:42;;;;;;;8.93;8.13;;;;;;;3.28;100.00;96846.63;5053430;28;20178;-59
2022/12/06 03:43:09;;;;;;;8.93;8.03;;;;;;;3.36;100.00;96845.72;5053274;28;20267;-59
2022/12/06 03:46:15;;;;;;;8.40;7.60;;;;;;;3.31;100.00;96850.63;5037075;28;20170;-60
2022/12/06 03:48:48;;;;;;;8.47;7.43;;;;;;;3.27;100.00;96845.03;5041533;28;20280;-60
2022/12/06 03:51:27;;;;;;;8.70;7.90;;;;;;;3.43;100.00;96843.22;5052617;28;20174;-60
2022/12/06 03:53:56;;;;;;;8.33;7.63;;;;;;;3.29;100.00;96844.81;5055213;28;20166;-59
2022/12/06 03:56:22;;;;;;;8.30;7.47;;;;;;;3.43;100.00;96848.41;5055980;28;20265;-60
2022/12/06 03:58:48;;;;;;;8.43;7.73;;;;;;;3.45;100.00;96836.88;5050009;28;20280;-60
2022/12/06 04:01:13;;;;;;;8.03;7.33;;;;;;;3.45;100.00;96846.44;5053034;28;20639;-59
2022/12/06 04:03:39;;;;;;;9.53;8.63;;;;;;;3.41;100.00;96833.03;5055627;28;20248;-57
2022/12/06 04:06:06;;;;;;;9.30;8.40;;;;;;;3.40;100.00;96838.41;5057351;28;20200;-57
2022/12/06 04:08:32;;;;;;;9.93;9.13;;;;;;;3.28;100.00;96838.06;5054925;28;20256;-59
2022/12/06 04:10:57;;;;;;;10.37;9.47;;;;;;;3.24;100.00;96842.78;5052140;28;20194;-59
2022/12/06 04:13:22;;;;;;;9.17;8.37;;;;;;;3.18;100.00;96835.72;5052651;28;20181;-60
2022/12/06 04:15:48;;;;;;;9.83;9.03;;;;;;;3.30;100.00;96834.28;5052851;28;20174;-60
2022/12/06 04:18:14;;;;;;;9.83;9.03;;;;;;;3.42;100.00;96831.25;5052472;28;20330;-59
2022/12/06 04:23:31;;;;;;;9.40;8.60;;;;;;;3.44;100.00;96827.50;5052236;28;20668;-59
2022/12/06 04:25:57;;;;;;;9.87;9.07;;;;;;;3.41;100.00;96825.25;5052354;28;20193;-60
2022/12/06 04:39:21;;;;;;;8.47;7.77;;;;;;;3.40;100.00;96818.47;5052581;28;20239;-60
2022/12/06 04:44:32;;;;;;;8.77;7.90;;;;;;;3.16;100.00;96816.97;5036635;28;20169;-59
2022/12/06 04:46:58;;;;;;;10.10;8.57;;;;;;;3.28;100.00;96812.97;5052199;28;20162;-58
2022/12/06 04:49:25;;;;;;;8.87;7.97;;;;;;;3.33;100.00;96817.59;5052184;28;20178;-61
2022/12/06 04:51:51;;;;;;;9.23;8.33;;;;;;;3.29;100.00;96824.09;5052261;28;20181;-57
2022/12/06 04:54:17;;;;;;;8.97;8.13;;;;;;;3.26;100.00;96814.13;5051821;28;20222;-61
2022/12/06 04:56:42;;;;;;;9.23;8.30;;;;;;;3.29;100.00;96808.56;5051201;28;20277;-60
2022/12/06 04:59:08;;;;;;;9.50;8.60;;;;;;;3.26;100.00;96807.16;5049872;28;20217;-58
2022/12/06 05:01:33;;;;;;;9.97;9.00;;;;;;;3.32;100.00;96806.44;5052021;28;20181;-59
2022/12/06 05:03:59;;;;;;;9.10;8.40;;;;;;;3.32;100.00;96805.63;5051184;28;20174;-59
2022/12/06 05:06:24;;;;;;;10.07;9.20;;;;;;;3.26;100.00;96796.78;5051969;28;20204;-60
2022/12/06 05:08:49;;;;;;;9.43;8.70;;;;;;;3.27;100.00;96797.59;5051804;28;20233;-60
2022/12/06 05:11:15;;;;;;;9.50;8.70;;;;;;;3.24;100.00;96796.16;5056120;28;20173;-61
2022/12/06 05:13:40;;;;;;;10.53;9.63;;;;;;;3.42;100.00;96805.34;5055991;28;20174;-59
2022/12/06 05:16:06;;;;;;;10.00;9.20;;;;;;;3.23;100.00;96798.94;5055996;28;20181;-60
2022/12/06 05:18:32;;;;;;;9.40;8.60;;;;;;;3.27;100.00;96798.41;5055713;28;20292;-59
2022/12/06 05:21:05;;;;;;;8.60;7.87;;;;;;;3.23;100.00;96794.53;5055691;28;20186;-59
2022/12/06 05:23:34;;;;;;;9.40;8.50;;;;;;;3.28;100.00;96797.44;5055914;28;20228;-57
2022/12/06 05:26:01;;;;;;;8.67;7.20;;;;;;;3.23;100.00;96802.31;5055680;28;20185;-59
2022/12/06 05:28:28;;;;;;;8.20;7.47;;;;;;;3.19;100.00;96805.44;5055502;28;20206;-59
2022/12/06 05:30:53;;;;;;;7.70;6.90;;;;;;;3.24;100.00;96798.75;5055942;28;20185;-60
2022/12/06 05:33:19;;;;;;;8.10;7.40;;;;;;;3.25;100.00;96805.53;5055546;28;20182;-59
2022/12/06 05:35:44;;;;;;;8.43;7.63;;;;;;;3.26;100.00;96814.13;5053214;28;20593;-59
2022/12/06 05:38:09;;;;;;;8.10;7.40;;;;;;;3.33;100.00;96804.66;5055256;28;20296;-57
2022/12/06 05:40:38;;;;;;;10.27;7.93;;;;;;;3.35;100.00;96806.06;5055278;28;20178;-60
2022/12/06 05:43:03;;;;;;;9.37;8.47;;;;;;;3.37;100.00;96802.50;5055207;28;20660;-59
2022/12/06 05:45:29;;;;;;;8.70;7.90;;;;;;;3.49;100.00;96804.44;5055480;28;20177;-60
2022/12/06 05:47:54;;;;;;;8.93;8.13;;;;;;;3.41;100.00;96801.13;5055237;28;20202;-57
2022/12/06 05:50:20;;;;;;;8.33;7.57;;;;;;;3.30;100.00;96794.63;5055274;28;20178;-62
2022/12/06 05:52:45;;;;;;;8.57;7.70;;;;;;;3.25;100.00;96802.16;5055971;28;20215;-63
2022/12/06 05:55:10;;;;;;;7.93;7.23;;;;;;;3.34;100.00;96803.66;5055680;28;20264;-61
2022/12/06 05:57:36;;;;;;;8.73;7.40;;;;;;;3.25;100.00;96802.16;5053859;28;20343;-61
2022/12/06 06:00:03;;;;;;;7.73;7.03;;;;;;;3.30;100.00;96802.41;5055267;28;20174;-62
2022/12/06 06:02:28;;;;;;;7.80;7.10;;;;;;;3.30;100.00;96802.41;5054496;28;20184;-60
2022/12/06 06:04:54;;;;;;;7.83;7.13;;;;;;;3.42;100.00;96800.97;5037198;28;20642;-62
2022/12/06 06:07:19;;;;;;;8.67;7.97;;;;;;;3.33;100.00;96799.47;5054816;28;20202;-61
2022/12/06 06:09:45;;;;;;;8.10;7.40;;;;;;;3.29;100.00;96793.81;5054449;28;20189;-61
2022/12/06 06:12:10;;;;;;;8.77;8.00;;;;;;;3.46;100.00;96793.63;5054896;28;20224;-60
2022/12/06 06:14:36;;;;;;;8.43;7.73;;;;;;;3.40;100.00;96794.38;5054267;28;20277;-57
2022/12/06 06:17:01;;;;;;;9.23;8.33;;;;;;;3.55;100.00;96808.09;5054408;28;20217;-60
2022/12/06 06:19:27;;;;;;;8.73;8.03;;;;;;;3.49;100.00;96801.03;5054423;28;20177;-61
2022/12/06 06:21:52;;;;;;;8.77;7.90;;;;;;;3.30;100.00;96799.81;5053808;28;20182;-60
2022/12/06 06:24:17;;;;;;;8.20;7.40;;;;;;;3.36;100.00;96799.09;5054620;28;20265;-59
2022/12/06 06:26:43;;;;;;;8.00;7.30;;;;;;;3.44;100.00;96795.59;5054318;28;20182;-60
2022/12/06 06:29:08;;;;;;;7.80;7.20;;;;;;;3.35;100.00;96800.88;5054273;28;20201;-66
2022/12/06 06:31:34;;;;;;;9.77;7.67;;;;;;;3.39;100.00;96805.72;5054234;28;20182;-58
2022/12/06 06:33:59;;;;;;;7.70;7.10;;;;;;;3.39;100.00;96806.53;5054324;28;20650;-60
2022/12/06 06:36:25;;;;;;;7.83;7.13;;;;;;;3.37;100.00;96803.28;5052130;28;20248;-59
2022/12/06 06:38:50;;;;;;;8.10;7.40;;;;;;;3.60;100.00;96806.56;5054284;28;20218;-59
2022/12/06 06:41:16;;;;;;;7.77;7.17;;;;;;;3.40;100.00;96810.69;5054286;28;20278;-60
2022/12/06 06:43:41;;;;;;;7.90;7.20;;;;;;;3.44;100.00;96804.19;5054299;28;20210;-62
2022/12/06 06:46:07;;;;;;;7.53;6.83;;;;;;;3.40;100.00;96789.97;5054270;28;20180;-58
2022/12/06 06:48:36;;;;;;;7.57;6.97;;;;;;;3.33;100.00;96796.88;5054259;28;20297;-60
2022/12/06 06:51:11;;;;;;;7.47;6.87;;;;;;;3.35;100.00;96794.88;5053842;28;20185;-60
2022/12/06 06:53:37;;;;;;;8.20;7.50;;;;;;;3.49;100.00;96791.50;5053961;28;20823;-58
2022/12/06 06:56:04;;;;;;;7.90;7.20;;;;;;;3.58;100.00;96789.59;5053651;28;20170;-60
2022/12/06 06:58:29;;;;;;;8.10;7.30;;;;;;;3.54;100.00;96793.53;5051810;28;20718;-60
2022/12/06 07:00:57;;;;;;;8.67;7.87;;;;;;;3.44;100.00;96798.19;5053417;28;20212;-64
2022/12/06 07:03:23;;;;;;;8.90;8.10;;;;;;;3.32;100.00;96797.84;5052774;28;20631;-60
2022/12/06 07:05:56;;;;;;;8.57;7.87;;;;;;;3.35;100.00;96806.06;5053785;28;20193;-61
2022/12/06 07:08:22;;;;;;;8.60;7.90;;;;;;;3.51;100.00;96810.22;5052813;28;20204;-60
2022/12/06 07:10:48;;;;;;;8.10;7.13;;;;;;;3.41;100.00;96804.53;5053965;28;20154;-60
2022/12/06 07:13:15;;;;;;;8.73;8.03;;;;;;;3.39;100.00;96809.09;5053071;28;20185;-59
2022/12/06 07:15:41;;;;;;;8.63;7.53;;;;;;;3.44;100.00;96818.91;5035752;28;20181;-59
2022/12/06 07:18:07;;;;;;;7.73;7.13;;;;;;;3.47;100.00;96813.38;5052876;28;20213;-59
2022/12/06 07:20:33;;;;;;;8.97;8.17;;;;;;;3.46;100.00;96817.75;5052583;28;20178;-54
2022/12/06 07:22:58;;;;;;;9.23;8.43;;;;;;;3.36;100.00;96812.03;5053567;28;20618;-54
2022/12/06 07:25:24;;;;;;;9.53;8.73;;;;;;;3.39;100.00;96821.25;5053459;28;20178;-59
2022/12/06 07:27:49;;;;;;;8.43;7.73;;;;;;;3.44;100.00;96811.97;5052907;28;20217;-58
2022/12/06 07:30:15;;;;;;;24.87;22.90;;;;;;;3.36;100.00;96812.03;5053439;28;20174;-63
2022/12/06 07:32:40;;;;;;;8.37;7.67;;;;;;;3.09;100.00;96818.66;5053287;28;20170;-61
2022/12/06 07:35:06;;;;;;;8.73;7.83;;;;;;;3.24;100.00;96816.06;5051113;28;20226;-59
2022/12/06 07:37:31;;;;;;;9.43;8.63;;;;;;;3.33;100.00;96815.00;5053033;28;20648;-61
2022/12/06 07:39:58;;;;;;;9.80;9.00;;;;;;;3.29;100.00;96806.78;5053051;28;20269;-58
2022/12/06 07:45:09;;;;;;;8.97;8.17;;;;;;;3.38;100.00;96812.69;5053494;28;20177;-58
2022/12/06 07:47:36;;;;;;;9.17;8.37;;;;;;;3.40;100.00;96810.69;5052922;28;20229;-58
2022/12/06 07:50:03;;;;;;;8.37;7.53;;;;;;;3.41;100.00;96806.31;5052960;28;20178;-56
2022/12/06 07:52:35;;;;;;;8.00;7.30;;;;;;;3.43;100.00;96796.59;5052494;28;20527;-58
2022/12/06 07:55:01;;;;;;;8.03;7.33;;;;;;;3.62;100.00;96801.22;5048349;28;20185;-58
2022/12/06 07:57:27;;;;;;;8.50;7.60;;;;;;;3.47;100.00;96803.00;5051012;28;20210;-57
2022/12/06 07:59:54;;;;;;;8.10;7.43;;;;;;;3.31;100.00;96802.22;5034852;28;20251;-57
2022/12/06 08:02:22;;;;;;;8.93;8.13;;;;;;;3.47;100.00;96806.41;5051992;28;20629;-57
2022/12/06 08:04:48;;;;;;;11.93;10.77;;;;;;;3.59;100.00;96806.75;5052917;28;20178;-58
2022/12/06 08:07:13;;;;;;;9.80;9.00;;;;;;;3.45;100.00;96800.63;5052634;28;20564;-57
2022/12/06 08:09:39;;;;;;;10.60;9.70;;;;;;;3.50;100.00;96800.88;5042122;28;20173;-59
2022/12/06 08:12:05;;;;;;;12.90;11.53;;;;;;;3.57;100.00;96803.50;5053096;28;20178;-61
2022/12/06 08:14:31;;;;;;;13.03;11.97;;;;;;;3.53;100.00;96807.47;5053031;28;20201;-58
2022/12/06 08:16:56;;;;;;;16.87;15.70;;;;;;;3.62;100.00;96806.38;5052572;28;20284;-60
2022/12/06 08:19:21;;;;;;;20.03;18.47;;;;;;;3.66;100.00;96807.63;5052986;28;20173;-59
2022/12/06 08:21:47;;;;;;;16.87;15.47;;;;;;;3.66;100.00;96813.63;5051870;28;20166;-59
2022/12/06 08:24:13;;;;;;;15.10;13.90;;;;;;;3.57;100.00;96809.50;5048299;28;20257;-59
2022/12/06 08:26:38;;;;;;;15.60;14.27;;;;;;;3.61;100.00;96809.97;5047707;28;20178;-61
2022/12/06 08:29:04;;;;;;;14.87;13.67;;;;;;;3.59;100.00;96798.97;5048372;28;20304;-56
2022/12/06 08:31:33;;;;;;;14.97;13.87;;;;;;;3.72;100.00;96812.09;5034507;28;20185;-54
2022/12/06 08:34:01;;;;;;;12.10;11.20;;;;;;;3.70;100.00;96809.66;5052499;28;20243;-61
2022/12/06 08:36:29;;;;;;;12.40;11.50;;;;;;;3.72;100.00;96805.09;5049976;28;20261;-58
2022/12/06 08:38:57;;;;;;;12.43;11.33;;;;;;;3.76;100.00;96811.53;5052554;28;20597;-54
2022/12/06 08:44:10;;;;;;;11.63;10.43;;;;;;;4.02;100.00;96810.97;5052114;28;20168;-62
2022/12/06 08:46:36;;;;;;;11.97;9.87;;;;;;;3.98;100.00;96807.16;5052259;28;20249;-58
2022/12/06 08:49:02;;;;;;;11.50;10.50;;;;;;;3.99;100.00;96806.19;5052197;28;20289;-58
2022/12/06 08:51:28;;;;;;;10.30;9.40;;;;;;;4.06;100.00;96811.44;5052331;28;20204;-58
2022/12/06 08:53:54;;;;;;;10.60;9.60;;;;;;;4.00;100.00;96815.56;5052163;28;20200;-61
2022/12/06 08:56:20;;;;;;;10.63;9.63;;;;;;;3.91;100.00;96811.47;5050324;28;20213;-57
2022/12/06 08:58:46;;;;;;;10.90;10.00;;;;;;;3.94;100.00;96816.31;5052093;28;20205;-57
2022/12/06 09:01:24;;;;;;;20.97;10.30;;;;;;;3.94;100.00;96818.09;5051998;28;20170;-56
2022/12/06 09:03:50;;;;;;;9.03;7.93;;;;;;;4.05;100.00;96810.63;5051762;28;20254;-58
2022/12/06 09:06:17;;;;;;;17.40;16.20;;;;;;;4.22;100.00;96816.38;5052109;28;20269;-56
2022/12/06 09:08:44;;;;;;;12.33;11.23;;;;;;;3.86;100.00;96815.59;5051719;28;20210;-58
2022/12/06 09:11:10;;;;;;;9.80;8.90;;;;;;;3.81;100.00;96825.72;5052142;28;20253;-58
2022/12/06 09:13:37;;;;;;;10.00;9.10;;;;;;;3.77;100.00;96827.88;5052012;28;20197;-60
2022/12/06 09:16:08;;;;;;;11.03;10.13;;;;;;;3.82;100.00;96824.75;5051385;28;20186;-57
2022/12/06 09:18:34;;;;;;;12.33;11.10;;;;;;;3.80;100.00;96829.28;5051447;28;20202;-56
2022/12/06 09:21:04;;;;;;;10.80;9.83;;;;;;;3.88;100.00;96827.41;5033491;28;20197;-58
2022/12/06 09:23:29;;;;;;;9.77;8.87;;;;;;;3.94;100.00;96829.28;5051894;28;20181;-56
2022/12/06 09:25:55;;;;;;;9.37;8.57;;;;;;;3.84;100.00;96830.56;5051262;28;20178;-58
2022/12/06 09:28:20;;;;;;;10.30;9.37;;;;;;;3.81;100.00;96825.72;5051371;28;20193;-57
2022/12/06 09:30:45;;;;;;;9.00;8.20;;;;;;;4.03;100.00;96830.75;5051716;28;20167;-55
2022/12/06 09:33:11;;;;;;;9.20;7.33;;;;;;;4.04;100.00;96828.97;5051240;28;20650;-57
2022/12/06 09:35:36;;;;;;;9.83;8.93;;;;;;;3.85;100.00;96829.53;5049084;28;20225;-58
2022/12/06 09:38:02;;;;;;;11.20;10.03;;;;;;;3.63;100.00;96826.91;5051499;28;20210;-56
2022/12/06 09:41:12;;;;;;;11.67;10.57;;;;;;;3.32;100.00;96831.53;5051659;28;20168;-51
2022/12/06 09:43:49;;;;;;;12.67;11.03;;;;;;;3.50;100.00;96829.38;5051599;28;20216;-58
2022/12/06 09:46:39;;;;;;;12.03;11.03;;;;;;;3.60;100.00;96827.28;5051637;28;20650;-61
2022/12/06 09:49:04;;;;;;;11.00;10.00;;;;;;;3.68;100.00;96829.75;5051641;28;20190;-61
2022/12/06 09:51:48;;;;;;;11.37;10.30;;;;;;;3.71;100.00;96837.19;5051744;28;20674;-59
2022/12/06 09:54:33;;;;;;;11.03;10.03;;;;;;;3.55;100.00;96821.06;5051218;28;20174;-63
2022/12/06 09:57:15;;;;;;;11.33;10.33;;;;;;;3.56;100.00;96831.25;5051908;28;20204;-62
2022/12/06 10:00:07;;;;;;;11.47;9.63;;;;;;;3.70;100.00;96825.22;5047167;28;20537;-61
2022/12/06 10:02:58;;;;;;;12.37;11.07;;;;;;;3.64;100.00;96830.31;5054743;28;20174;-62
2022/12/06 10:05:39;;;;;;;12.37;11.27;;;;;;;3.77;100.00;96830.47;5043543;28;20277;-61
2022/12/06 10:08:16;;;;;;;11.70;10.37;;;;;;;3.59;100.00;96824.88;5054061;28;20198;-62
2022/12/06 10:10:50;;;;;;;11.80;10.70;;;;;;;3.59;100.00;96824.88;5054973;28;20521;-61
2022/12/06 10:13:38;;;;;;;12.80;11.57;;;;;;;3.81;100.00;96830.91;5054703;28;20201;-61
2022/12/06 10:16:24;;;;;;;12.83;11.53;;;;;;;3.61;100.00;96826.31;5054919;28;20711;-62
2022/12/06 10:19:06;;;;;;;11.60;10.50;;;;;;;3.76;100.00;96827.06;5048221;28;20217;-61
2022/12/06 10:21:52;;;;;;;11.13;10.13;;;;;;;3.77;100.00;96827.88;5054918;28;20185;-57
2022/12/06 10:24:42;;;;;;;13.17;10.83;;;;;;;3.92;100.00;96826.03;5054684;28;20170;-60
2022/12/06 10:27:21;;;;;;;15.53;14.07;;;;;;;4.02;100.00;96813.56;5049936;28;20205;-60
2022/12/06 10:30:00;;;;;;;19.00;17.13;;;;;;;3.89;100.00;96817.84;5056324;28;20177;-58
2022/12/06 10:32:40;;;;;;;17.37;15.67;;;;;;;4.03;100.00;96812.59;5054903;28;20538;-60
2022/12/06 10:35:17;;;;;;;18.67;16.73;;;;;;;4.28;100.00;96807.84;5051893;28;20237;-60
2022/12/06 10:38:08;;;;;;;19.47;17.57;;;;;;;4.40;100.00;96811.53;5054368;28;20209;-58
2022/12/06 10:40:50;;;;;;;15.90;14.20;;;;;;;4.11;100.00;96811.69;5054538;28;20704;-61
2022/12/06 10:43:52;;;;;;;17.57;15.77;;;;;;;4.17;100.00;96805.75;5036075;28;20314;-61
2022/12/06 10:49:38;;;;;;;16.63;14.93;;;;;;;4.25;100.00;96800.44;5054458;28;20281;-61
2022/12/06 10:52:16;;;;;;;15.57;13.20;;;;;;;4.25;100.00;96791.84;5054168;28;20182;-60
2022/12/06 10:54:44;;;;;;;15.63;13.93;;;;;;;4.46;100.00;96797.00;5046779;28;20182;-61
2022/12/06 10:57:19;;;;;;;17.60;13.17;;;;;;;4.55;100.00;96796.69;5052510;28;20237;-61
2022/12/06 11:00:00;;;;;;;18.17;13.77;;;;;;;4.47;100.00;96796.00;5053972;28;20630;-60
2022/12/06 11:02:26;;;;;;;20.97;19.03;;;;;;;4.56;100.00;96792.31;5053598;28;20995;-61
2022/12/06 11:04:58;;;;;;;14.60;12.47;;;;;;;4.55;100.00;96793.28;5053987;28;20197;-61
2022/12/06 11:07:30;;;;;;;14.73;12.33;;;;;;;4.63;100.00;96792.34;5052992;28;20244;-67
2022/12/06 11:09:57;;;;;;;13.80;12.20;;;;;;;4.65;100.00;96782.56;5054209;28;20628;-63
2022/12/06 11:12:27;;;;;;;12.40;11.03;;;;;;;4.73;100.00;96783.25;5053631;28;20210;-62
2022/12/06 11:15:19;;;;;;;12.70;10.93;;;;;;;4.50;100.00;96775.69;5054027;28;20174;-66
2022/12/06 11:17:53;;;;;;;12.93;10.47;;;;;;;4.76;100.00;96767.28;5053593;28;20259;-61
2022/12/06 11:20:25;;;;;;;17.13;11.43;;;;;;;4.65;100.00;96767.00;5053824;28;20174;-61
2022/12/06 11:23:19;;;;;;;13.53;10.73;;;;;;;4.61;100.00;96776.97;5053520;28;20673;-60
2022/12/06 11:26:03;;;;;;;13.13;11.73;;;;;;;4.48;100.00;96775.06;5027139;28;20186;-61
2022/12/06 11:28:42;;;;;;;11.07;9.97;;;;;;;4.43;100.00;96780.03;5052716;28;20593;-61
2022/12/06 11:31:21;;;;;;;14.73;11.97;;;;;;;4.46;100.00;96778.84;5053598;28;20552;-61
2022/12/06 11:33:46;;;;;;;12.03;10.73;;;;;;;4.40;100.00;96777.03;5053033;28;20276;-61
2022/12/06 11:36:12;;;;;;;13.10;10.63;;;;;;;4.35;100.00;96777.56;5051104;28;20230;-60
2022/12/06 11:38:40;;;;;;;12.93;11.53;;;;;;;4.24;100.00;96785.84;5053327;28;20698;-61
2022/12/06 11:41:09;;;;;;;14.23;11.80;;;;;;;4.09;100.00;96783.34;5053472;28;20174;-62
2022/12/06 11:43:35;;;;;;;13.33;11.63;;;;;;;4.27;100.00;96782.91;5053032;28;20631;-62
2022/12/06 11:46:03;;;;;;;12.00;10.73;;;;;;;4.11;100.00;96783.97;5053286;28;20248;-61
2022/12/06 11:48:32;;;;;;;13.23;11.70;;;;;;;4.01;100.00;96782.66;5053415;28;20228;-61
2022/12/06 11:50:57;;;;;;;12.87;11.17;;;;;;;4.01;100.00;96780.84;5052951;28;20224;-63
2022/12/06 11:53:29;;;;;;;15.10;11.70;;;;;;;4.17;100.00;96787.59;5053116;28;20532;-62
2022/12/06 11:55:59;;;;;;;12.70;11.13;;;;;;;3.97;100.00;96787.41;5051279;28;20240;-61
2022/12/06 11:58:37;;;;;;;14.20;12.53;;;;;;;3.97;100.00;96786.59;5052883;28;20619;-62
2022/12/06 12:01:12;;;;;;;17.13;14.13;;;;;;;3.75;100.00;96786.59;5052521;28;20174;-61
2022/12/06 12:03:40;;;;;;;14.67;13.20;;;;;;;3.93;100.00;96778.41;5052434;28;20589;-62
2022/12/06 12:06:27;;;;;;;18.63;16.77;;;;;;;3.91;100.00;96782.94;5052774;28;20668;-62